Terminal Aerodrome Forecast
Issued by NWS

Home | Current Version | Previous Version | Text Only | Print | Product List | Glossary On
Versions: 1 2 3 4 5 6 7 8 9 10 11 12 13 14 15 16 17 18
000
FTUS45 KTFX 271739
TAFCTB
TAF
KCTB 271739Z 2718/2818 01011KT 2SM -SHRASN BKN006 OVC020
      TEMPO 2718/2720 P6SM NSW FEW006 SCT010 BKN025
     FM272000 02009KT P6SM VCSH SCT010 OVC015
     FM280200 30008KT P6SM SCT015 OVC040
     FM280900 32007KT P6SM VCSH SCT010 BKN025=

USA.gov is the U.S. government's official web portal to all federal, state and local government web resources and services.